Time;durP1;ratioP1;P1;durP2;ratioP2;P2;SDS_P1;SDS_P2;PMS_P1;PMS_P2;Temp;Humidity;BMP_temperature;BMP_pressure;BME280_temperature;BME280_humidity;BME280_pressure;Samples;Min_cycle;Max_cycle;Signal;HPM_P1;HPM_P2
2021/06/06 00:00:26;;;;;;;6.47;3.58;;;;;;;15.90;54.47;94121.41;5098618;28;20483;-69
2021/06/06 00:02:53;;;;;;;6.05;4.00;;;;;;;15.82;54.46;94115.81;5098245;28;20483;-69
2021/06/06 00:05:20;;;;;;;6.20;4.10;;;;;;;15.82;54.53;94109.66;5106281;28;20026;-69
2021/06/06 00:07:45;;;;;;;6.85;4.35;;;;;;;15.80;54.42;94118.06;5109032;28;20023;-69
2021/06/06 00:10:12;;;;;;;7.50;4.72;;;;;;;15.77;54.63;94120.63;5093538;28;20486;-69
2021/06/06 00:12:37;;;;;;;8.43;4.35;;;;;;;15.67;54.83;94116.47;5104075;28;20029;-69
2021/06/06 00:15:09;;;;;;;7.18;4.80;;;;;;;15.68;54.83;94118.06;5091399;28;20039;-69
2021/06/06 00:17:35;;;;;;;6.22;4.10;;;;;;;15.61;54.57;94115.16;5096378;28;20027;-69
2021/06/06 00:20:00;;;;;;;8.52;4.53;;;;;;;15.58;55.21;94110.47;5106029;28;20573;-69
2021/06/06 00:22:26;;;;;;;6.68;4.53;;;;;;;15.51;55.18;94112.91;5089260;28;20463;-69
2021/06/06 00:24:51;;;;;;;8.02;4.43;;;;;;;15.50;55.34;94116.75;5098227;28;20095;-69
2021/06/06 00:27:17;;;;;;;8.15;4.63;;;;;;;15.44;55.61;94111.59;5109622;28;20027;-69
2021/06/06 00:29:42;;;;;;;7.75;4.05;;;;;;;15.40;55.64;94116.06;5090501;28;20034;-69
2021/06/06 00:32:08;;;;;;;6.25;4.03;;;;;;;15.37;55.46;94110.59;5104284;28;20111;-69
2021/06/06 00:34:33;;;;;;;13.25;3.67;;;;;;;15.35;55.22;94110.94;5110501;28;20062;-69
2021/06/06 00:36:59;;;;;;;4.80;3.67;;;;;;;15.30;55.64;94113.84;5109217;28;20164;-69
2021/06/06 00:39:24;;;;;;;4.13;3.28;;;;;;;15.24;55.78;94112.50;5101012;28;20030;-69
2021/06/06 00:41:51;;;;;;;7.95;3.50;;;;;;;15.20;55.37;94112.41;5109202;28;20053;-69
2021/06/06 00:44:19;;;;;;;4.85;3.70;;;;;;;15.18;55.51;94116.50;5104895;28;20024;-69
2021/06/06 00:46:44;;;;;;;10.07;3.78;;;;;;;15.09;56.40;94121.22;5091571;28;20032;-69
2021/06/06 00:49:10;;;;;;;6.45;4.38;;;;;;;15.11;56.51;94119.75;5101910;28;20126;-69
2021/06/06 00:51:53;;;;;;;6.45;4.18;;;;;;;15.10;56.67;94117.41;5096548;28;20145;-69
2021/06/06 00:54:26;;;;;;;5.85;4.38;;;;;;;15.01;56.74;94115.63;5088780;28;20526;-69
2021/06/06 00:56:57;;;;;;;7.40;4.43;;;;;;;15.03;56.64;94109.91;5090249;28;20019;-69
2021/06/06 00:59:25;;;;;;;8.35;4.35;;;;;;;15.03;56.80;94121.44;5101742;28;20020;-69
2021/06/06 01:01:51;;;;;;;6.40;4.35;;;;;;;14.99;56.66;94115.16;5097798;28;20063;-69
2021/06/06 01:04:17;;;;;;;6.28;3.97;;;;;;;14.94;56.42;94104.66;5089967;28;20062;-69
2021/06/06 01:06:49;;;;;;;7.10;3.90;;;;;;;14.97;56.29;94108.56;5105696;28;20471;-69
2021/06/06 01:09:18;;;;;;;12.32;3.88;;;;;;;14.95;56.07;94119.63;5097331;28;20476;-69
2021/06/06 01:12:09;;;;;;;6.35;4.10;;;;;;;14.92;56.31;94117.63;5114536;28;20028;-69
2021/06/06 01:14:56;;;;;;;6.43;4.35;;;;;;;14.88;56.47;94115.94;5114638;28;20479;-69
2021/06/06 01:17:49;;;;;;;6.32;4.13;;;;;;;14.87;56.54;94106.31;5113210;28;20032;-69
2021/06/06 01:20:33;;;;;;;10.85;4.28;;;;;;;14.85;56.48;94107.44;5095946;28;20043;-69
2021/06/06 01:23:18;;;;;;;7.05;5.03;;;;;;;14.83;56.75;94104.28;5101326;28;20046;-69
2021/06/06 01:25:48;;;;;;;9.57;4.38;;;;;;;14.82;57.07;94099.28;5095124;28;20509;-69
2021/06/06 01:28:20;;;;;;;5.65;4.10;;;;;;;14.73;57.63;94094.00;5108033;28;20023;-69
2021/06/06 01:30:49;;;;;;;6.93;4.32;;;;;;;14.75;57.91;94099.03;5107838;28;20103;-69
2021/06/06 01:33:25;;;;;;;6.55;4.50;;;;;;;14.76;57.65;94090.66;5112576;28;20027;-69
2021/06/06 01:36:03;;;;;;;7.22;4.55;;;;;;;14.73;57.76;94090.53;5104370;28;20176;-69
2021/06/06 01:38:35;;;;;;;14.05;5.60;;;;;;;14.72;58.33;94097.03;5114070;28;20031;-69
2021/06/06 01:41:08;;;;;;;10.73;5.15;;;;;;;14.65;58.72;94089.50;5113714;28;20520;-71
2021/06/06 01:43:38;;;;;;;6.18;4.75;;;;;;;14.67;58.48;94086.50;5112647;28;20023;-69
2021/06/06 01:46:16;;;;;;;11.48;5.43;;;;;;;14.64;58.76;94077.22;5095409;28;20433;-69
2021/06/06 01:48:43;;;;;;;11.00;5.28;;;;;;;14.58;59.35;94076.66;5093577;28;20024;-69
2021/06/06 01:51:19;;;;;;;6.55;5.10;;;;;;;14.56;59.42;94076.19;5108297;28;20051;-70
2021/06/06 01:53:47;;;;;;;7.22;4.40;;;;;;;14.50;59.49;94074.81;5109426;28;20024;-69
2021/06/06 01:56:18;;;;;;;6.95;4.57;;;;;;;14.48;59.61;94069.00;5097348;28;20399;-69
2021/06/06 01:58:44;;;;;;;6.70;4.25;;;;;;;14.39;59.88;94065.63;5099556;28;20028;-69
2021/06/06 02:01:16;;;;;;;5.25;4.13;;;;;;;14.38;59.92;94072.88;5093102;28;20093;-69
2021/06/06 02:03:42;;;;;;;8.65;4.78;;;;;;;14.35;60.00;94064.72;5092173;28;20032;-69
2021/06/06 02:06:15;;;;;;;5.53;4.10;;;;;;;14.32;60.51;94060.03;5103119;28;20379;-70
2021/06/06 02:08:42;;;;;;;8.93;4.78;;;;;;;14.27;60.38;94063.72;5108982;28;20016;-69
2021/06/06 02:11:18;;;;;;;10.27;4.40;;;;;;;14.28;60.25;94053.75;5108371;28;20039;-69
2021/06/06 02:13:50;;;;;;;7.53;4.85;;;;;;;14.20;60.64;94058.88;5087720;28;20111;-69
2021/06/06 02:16:20;;;;;;;8.20;6.13;;;;;;;14.22;60.59;94059.31;5100838;28;20111;-69
2021/06/06 02:18:46;;;;;;;9.55;4.80;;;;;;;14.17;60.87;94061.44;5094922;28;20653;-69
2021/06/06 02:21:14;;;;;;;6.75;4.55;;;;;;;14.18;60.49;94058.41;5091201;28;20058;-69
2021/06/06 02:23:41;;;;;;;11.70;4.50;;;;;;;14.11;60.69;94055.50;5095139;28;20039;-69
2021/06/06 02:26:22;;;;;;;5.63;4.50;;;;;;;14.08;60.92;94060.72;5111985;28;20024;-69
2021/06/06 02:29:08;;;;;;;8.68;5.22;;;;;;;14.05;60.96;94054.91;5113241;28;20051;-69
2021/06/06 02:31:33;;;;;;;6.68;4.30;;;;;;;14.06;60.92;94053.00;5112832;28;20055;-69
2021/06/06 02:34:04;;;;;;;11.25;4.97;;;;;;;14.02;60.86;94054.78;5111790;28;20059;-69
2021/06/06 02:36:33;;;;;;;9.13;4.57;;;;;;;14.05;60.87;94054.13;5112865;28;20088;-69
2021/06/06 02:39:06;;;;;;;5.32;4.40;;;;;;;14.04;60.73;94050.69;5112967;28;20026;-69
2021/06/06 02:41:40;;;;;;;7.78;5.00;;;;;;;14.02;60.59;94052.09;5102931;28;20020;-69
2021/06/06 02:44:14;;;;;;;7.78;4.53;;;;;;;13.97;61.16;94053.09;5112824;28;20029;-69
2021/06/06 02:46:41;;;;;;;11.93;5.22;;;;;;;13.97;61.10;94053.09;5101680;28;20104;-69
2021/06/06 02:49:10;;;;;;;9.50;4.97;;;;;;;13.92;61.40;94045.28;5107298;28;20546;-69
2021/06/06 02:51:41;;;;;;;7.88;5.32;;;;;;;13.93;61.29;94048.75;5110070;28;20016;-69
2021/06/06 02:54:18;;;;;;;7.20;4.68;;;;;;;13.89;61.74;94040.56;5092282;28;20042;-69
2021/06/06 02:56:49;;;;;;;7.45;5.10;;;;;;;13.94;61.81;94052.97;5099308;28;20016;-69
2021/06/06 02:59:21;;;;;;;12.45;5.07;;;;;;;13.96;61.79;94054.22;5108219;28;20151;-69
2021/06/06 03:01:52;;;;;;;6.32;5.13;;;;;;;13.94;61.98;94050.28;5111409;28;20030;-69
2021/06/06 03:04:20;;;;;;;8.23;5.40;;;;;;;13.92;62.02;94049.84;5096306;28;20174;-69
2021/06/06 03:06:54;;;;;;;9.23;5.70;;;;;;;13.91;62.34;94064.38;5090349;28;20042;-69
2021/06/06 03:09:20;;;;;;;10.75;5.13;;;;;;;13.87;62.75;94060.78;5096077;28;20051;-69
2021/06/06 03:11:49;;;;;;;12.18;5.57;;;;;;;13.90;62.71;94065.47;5105974;28;20016;-69
2021/06/06 03:14:19;;;;;;;13.27;6.15;;;;;;;13.87;62.79;94064.22;5090718;28;20105;-69
2021/06/06 03:17:01;;;;;;;8.98;5.57;;;;;;;13.87;62.79;94072.25;5100299;28;20462;-69
2021/06/06 03:19:29;;;;;;;8.38;5.22;;;;;;;13.83;62.88;94063.31;5090596;28;20110;-69
2021/06/06 03:21:56;;;;;;;8.35;5.28;;;;;;;13.83;62.92;94071.34;5091685;28;20036;-69
2021/06/06 03:24:36;;;;;;;11.40;5.72;;;;;;;13.87;62.61;94071.50;5094759;28;20027;-69
2021/06/06 03:27:05;;;;;;;10.55;5.63;;;;;;;13.87;62.62;94063.44;5090124;28;20016;-69
2021/06/06 03:29:35;;;;;;;8.70;5.93;;;;;;;13.90;62.94;94068.13;5090064;28;20096;-69
2021/06/06 03:32:09;;;;;;;11.38;5.65;;;;;;;13.94;63.38;94052.97;5110298;28;20111;-69
2021/06/06 03:34:35;;;;;;;15.27;6.38;;;;;;;13.96;63.38;94056.91;5094577;28;20032;-69
2021/06/06 03:37:02;;;;;;;8.18;5.95;;;;;;;14.00;63.51;94055.13;5111276;28;20032;-69
2021/06/06 03:39:28;;;;;;;10.70;6.53;;;;;;;14.03;63.26;94051.00;5095494;28;20104;-69
2021/06/06 03:41:59;;;;;;;9.55;6.65;;;;;;;14.10;62.85;94040.53;5092549;28;20110;-69
2021/06/06 03:44:25;;;;;;;10.13;6.35;;;;;;;14.12;62.76;94046.34;5100598;28;20028;-69
2021/06/06 03:46:51;;;;;;;10.10;6.00;;;;;;;14.15;62.93;94053.72;5092038;28;20020;-69
2021/06/06 03:49:17;;;;;;;13.65;5.95;;;;;;;14.21;63.09;94062.34;5101892;28;20034;-69
2021/06/06 03:51:43;;;;;;;13.57;6.28;;;;;;;14.20;62.83;94058.88;5101788;28;20024;-69
2021/06/06 03:54:11;;;;;;;14.50;6.50;;;;;;;14.21;62.54;94057.00;5111556;28;20033;-69
2021/06/06 03:56:41;;;;;;;11.60;6.13;;;;;;;14.22;62.22;94058.53;5110015;28;20209;-69
2021/06/06 03:59:08;;;;;;;10.10;5.45;;;;;;;14.25;62.96;94058.66;5098725;28;20028;-69
2021/06/06 04:01:34;;;;;;;10.43;6.13;;;;;;;14.27;62.60;94050.31;5091007;28;20058;-69
2021/06/06 04:03:59;;;;;;;11.27;6.28;;;;;;;14.31;62.30;94056.56;5089418;28;20032;-69
2021/06/06 04:06:25;;;;;;;10.68;6.32;;;;;;;14.29;62.57;94058.00;5089561;28;20111;-69
2021/06/06 04:08:51;;;;;;;8.73;6.15;;;;;;;14.33;62.49;94056.22;5099333;28;20023;-69
2021/06/06 04:11:18;;;;;;;10.75;6.47;;;;;;;14.39;62.04;94058.38;5109834;28;20407;-69
2021/06/06 04:13:44;;;;;;;8.95;5.75;;;;;;;14.52;61.82;94061.09;5080014;28;20127;-69
2021/06/06 04:16:09;;;;;;;12.45;6.65;;;;;;;14.52;62.07;94045.00;5107509;28;20034;-69
2021/06/06 04:18:35;;;;;;;12.20;6.25;;;;;;;14.58;62.01;94060.56;5105098;28;20502;-69
2021/06/06 04:21:06;;;;;;;19.20;7.13;;;;;;;14.67;62.00;94052.41;5107892;28;20035;-69
2021/06/06 04:23:31;;;;;;;13.85;7.43;;;;;;;14.76;61.29;94060.38;5110822;28;20026;-69
2021/06/06 04:25:57;;;;;;;11.50;7.50;;;;;;;14.82;61.30;94061.72;5109175;28;20028;-69
2021/06/06 04:28:23;;;;;;;10.77;7.60;;;;;;;14.82;61.82;94053.66;5089303;28;20024;-69
2021/06/06 04:30:50;;;;;;;10.98;6.68;;;;;;;14.78;61.75;94052.78;5105942;28;20026;-69
2021/06/06 04:33:16;;;;;;;14.70;7.03;;;;;;;14.85;61.80;94063.72;5108498;28;20407;-69
2021/06/06 04:35:42;;;;;;;10.27;7.30;;;;;;;14.83;61.60;94068.63;5094775;28;20030;-69
2021/06/06 04:38:12;;;;;;;12.50;7.40;;;;;;;14.84;61.26;94067.53;5109160;28;20126;-69
2021/06/06 04:40:38;;;;;;;13.43;7.80;;;;;;;14.72;61.22;94065.63;5110475;28;20096;-69
2021/06/06 04:43:04;;;;;;;12.60;7.00;;;;;;;14.67;61.60;94073.88;5108736;28;20027;-69
2021/06/06 04:45:31;;;;;;;9.45;7.60;;;;;;;14.75;61.08;94075.66;5109383;28;20069;-69
2021/06/06 04:48:06;;;;;;;23.05;7.85;;;;;;;14.78;61.32;94068.88;5104946;28;20039;-69
2021/06/06 04:50:31;;;;;;;13.75;7.13;;;;;;;14.90;60.91;94082.28;5110625;28;20035;-69
2021/06/06 04:52:57;;;;;;;14.10;7.70;;;;;;;14.97;60.68;94079.06;5108914;28;20035;-69
2021/06/06 04:55:22;;;;;;;10.13;6.65;;;;;;;14.98;60.49;94089.47;5110464;28;20127;-69
2021/06/06 04:57:48;;;;;;;15.00;7.13;;;;;;;14.98;60.04;94089.47;5110439;28;20027;-69
2021/06/06 05:00:18;;;;;;;10.35;7.28;;;;;;;15.09;60.34;94086.34;5099721;28;20032;-69
2021/06/06 05:02:43;;;;;;;11.32;7.55;;;;;;;15.11;60.65;94082.19;5094478;28;20024;-69
2021/06/06 05:05:10;;;;;;;14.68;6.95;;;;;;;15.24;60.89;94074.91;5105739;28;20031;-69
2021/06/06 05:07:35;;;;;;;15.45;7.03;;;;;;;15.34;60.79;94084.41;5088714;28;20043;-69
2021/06/06 05:10:02;;;;;;;11.27;5.95;;;;;;;15.42;60.39;94075.44;5095709;28;20055;-69
2021/06/06 05:12:28;;;;;;;15.82;6.82;;;;;;;15.53;59.01;94075.75;5098491;28;20058;-69
2021/06/06 05:14:53;;;;;;;10.43;6.38;;;;;;;15.58;59.06;94068.25;5110398;28;20469;-69
2021/06/06 05:17:18;;;;;;;10.95;6.63;;;;;;;15.67;59.10;94070.81;5102358;28;20616;-69
2021/06/06 05:19:44;;;;;;;15.70;6.10;;;;;;;15.75;58.99;94067.25;5089923;28;20476;-69
2021/06/06 05:22:11;;;;;;;14.35;6.93;;;;;;;15.86;58.88;94072.16;5089369;28;20032;-69
2021/06/06 05:24:36;;;;;;;10.40;6.07;;;;;;;15.89;58.50;94072.22;5095306;28;20126;-69
2021/06/06 05:27:02;;;;;;;11.25;6.20;;;;;;;15.97;58.29;94073.22;5088584;28;20135;-69
2021/06/06 05:29:27;;;;;;;9.20;5.95;;;;;;;16.07;57.63;94064.66;5107879;28;20396;-69
2021/06/06 05:31:53;;;;;;;14.10;6.20;;;;;;;16.15;57.09;94068.34;5098993;28;20023;-69
2021/06/06 05:34:18;;;;;;;13.07;5.82;;;;;;;16.24;57.17;94075.13;5110607;28;20038;-69
2021/06/06 05:36:44;;;;;;;13.60;6.63;;;;;;;16.38;57.41;94066.66;5109804;28;20076;-69
2021/06/06 05:39:10;;;;;;;14.23;6.40;;;;;;;16.48;56.33;94064.59;5109215;28;20059;-69
2021/06/06 05:41:35;;;;;;;8.57;6.35;;;;;;;16.51;55.79;94058.53;5117054;28;20084;-69
2021/06/06 05:44:01;;;;;;;8.00;5.45;;;;;;;16.68;55.85;94062.78;5104882;28;20040;-69
2021/06/06 05:46:27;;;;;;;12.63;5.90;;;;;;;16.81;55.68;94066.97;5097729;28;20039;-69
2021/06/06 05:48:52;;;;;;;13.10;6.18;;;;;;;16.87;54.96;94062.91;5103517;28;20028;-69
2021/06/06 05:51:18;;;;;;;8.85;6.05;;;;;;;16.93;54.29;94058.81;5095894;28;20038;-69
2021/06/06 05:53:44;;;;;;;12.82;5.80;;;;;;;16.94;53.84;94063.09;5090932;28;20490;-69
2021/06/06 05:56:10;;;;;;;15.23;7.25;;;;;;;16.91;53.64;94065.69;5092600;28;20040;-69
2021/06/06 05:58:37;;;;;;;14.30;6.40;;;;;;;16.90;53.93;94064.91;5094738;28;20453;-69
2021/06/06 06:01:03;;;;;;;12.93;7.18;;;;;;;16.86;54.08;94068.66;5106188;28;20495;-69
2021/06/06 06:03:28;;;;;;;9.57;6.18;;;;;;;16.97;54.53;94066.97;5100447;28;20475;-69
2021/06/06 06:05:54;;;;;;;8.68;6.00;;;;;;;17.12;54.45;94060.81;5104055;28;20106;-69
2021/06/06 06:08:29;;;;;;;10.55;6.03;;;;;;;17.21;53.19;94068.72;5112444;28;20028;-70
2021/06/06 06:10:57;;;;;;;9.85;6.72;;;;;;;17.18;53.27;94058.66;5092022;28;20044;-69
2021/06/06 06:13:24;;;;;;;12.70;6.97;;;;;;;17.19;52.74;94068.28;5093333;28;20028;-70
2021/06/06 06:15:50;;;;;;;10.93;5.63;;;;;;;17.21;53.26;94066.03;5112676;28;20055;-69
2021/06/06 06:18:18;;;;;;;11.82;5.88;;;;;;;17.36;53.56;94064.41;5113649;28;20073;-69
2021/06/06 06:20:43;;;;;;;11.13;5.47;;;;;;;17.51;52.87;94060.16;5111900;28;20040;-69
2021/06/06 06:23:09;;;;;;;12.77;6.35;;;;;;;17.63;52.08;94057.34;5107252;28;20552;-69
2021/06/06 06:25:34;;;;;;;12.48;6.25;;;;;;;17.69;50.92;94063.22;5093029;28;20399;-69
2021/06/06 06:28:00;;;;;;;10.00;6.80;;;;;;;17.74;51.30;94068.34;5089562;28;20016;-69
2021/06/06 06:30:30;;;;;;;14.13;6.22;;;;;;;17.75;51.75;94056.44;5095323;28;20024;-69
2021/06/06 06:32:56;;;;;;;14.32;6.53;;;;;;;17.84;51.84;94062.41;5099918;28;20028;-70
2021/06/06 06:35:22;;;;;;;10.95;6.22;;;;;;;17.79;51.37;94058.06;5106156;28;20063;-69
2021/06/06 06:37:48;;;;;;;11.95;6.32;;;;;;;17.92;51.78;94060.66;5093226;28;20368;-69
2021/06/06 06:40:15;;;;;;;10.15;5.30;;;;;;;17.94;51.99;94067.25;5113191;28;20035;-69
2021/06/06 06:42:42;;;;;;;8.07;5.75;;;;;;;18.04;51.98;94058.59;5093065;28;20073;-69
2021/06/06 06:45:12;;;;;;;10.82;6.15;;;;;;;18.19;51.79;94066.94;5097919;28;20028;-69
2021/06/06 06:47:38;;;;;;;17.15;6.00;;;;;;;18.33;51.72;94066.44;5094904;28;20055;-69
2021/06/06 06:50:05;;;;;;;9.60;6.22;;;;;;;18.47;51.64;94064.03;5103999;28;20486;-69
2021/06/06 06:52:36;;;;;;;8.60;5.88;;;;;;;18.51;51.29;94064.09;5112880;28;20042;-69
2021/06/06 06:55:12;;;;;;;11.02;6.05;;;;;;;18.63;51.59;94056.59;5091487;28;20404;-69
2021/06/06 06:57:37;;;;;;;11.75;6.30;;;;;;;18.78;51.02;94063.00;5092216;28;20552;-69
2021/06/06 07:00:06;;;;;;;11.73;5.90;;;;;;;18.90;50.11;94062.09;5090647;28;20032;-69
2021/06/06 07:02:31;;;;;;;17.52;6.47;;;;;;;18.88;50.10;94058.97;5100831;28;20052;-69
2021/06/06 07:04:57;;;;;;;12.43;6.15;;;;;;;18.95;50.65;94058.28;5098973;28;20102;-69
2021/06/06 07:07:23;;;;;;;13.27;5.82;;;;;;;19.06;50.07;94056.56;5090864;28;20047;-69
2021/06/06 07:09:49;;;;;;;8.93;5.55;;;;;;;19.17;49.81;94062.94;5091794;28;20075;-69
2021/06/06 07:12:14;;;;;;;12.73;5.95;;;;;;;19.24;48.93;94056.84;5098816;28;20055;-69
2021/06/06 07:14:40;;;;;;;15.98;6.88;;;;;;;19.33;48.89;94057.34;5108760;28;20152;-66
2021/06/06 07:17:05;;;;;;;10.13;6.47;;;;;;;19.43;49.05;94050.56;5100053;28;20384;-66
2021/06/06 07:19:31;;;;;;;14.98;6.63;;;;;;;19.57;49.56;94052.69;5107171;28;20039;-66
2021/06/06 07:21:56;;;;;;;17.23;6.95;;;;;;;19.55;48.74;94057.66;5109010;28;20031;-66
2021/06/06 07:24:23;;;;;;;14.23;8.20;;;;;;;19.58;48.58;94046.91;5099464;28;20498;-67
2021/06/06 07:26:49;;;;;;;11.82;6.93;;;;;;;19.54;48.61;94056.09;5093027;28;20116;-66
2021/06/06 07:29:19;;;;;;;12.80;7.03;;;;;;;19.63;48.80;94062.03;5089841;28;20020;-69
2021/06/06 07:31:48;;;;;;;12.20;6.25;;;;;;;19.79;48.62;94068.06;5092653;28;20049;-67
2021/06/06 07:34:14;;;;;;;14.73;7.10;;;;;;;19.95;47.55;94069.84;5100186;28;20019;-67
2021/06/06 07:36:40;;;;;;;13.18;6.80;;;;;;;19.98;46.95;94069.09;5096155;28;20035;-67
2021/06/06 07:39:05;;;;;;;10.60;6.40;;;;;;;20.05;47.44;94061.06;5104612;28;20452;-69
2021/06/06 07:41:31;;;;;;;13.13;6.13;;;;;;;20.19;48.51;94058.53;5102801;28;20046;-69
2021/06/06 07:43:57;;;;;;;16.13;7.63;;;;;;;20.28;46.27;94054.75;5089483;28;20107;-67
2021/06/06 07:46:24;;;;;;;9.80;6.63;;;;;;;20.32;46.65;94055.56;5090973;28;20111;-67
2021/06/06 07:48:49;;;;;;;23.73;6.85;;;;;;;20.44;46.65;94058.03;5103554;28;20028;-67
2021/06/06 07:51:15;;;;;;;14.35;6.53;;;;;;;20.54;47.01;94062.00;5110053;28;20018;-67
2021/06/06 07:53:40;;;;;;;10.45;7.07;;;;;;;20.64;46.21;94061.38;5100313;28;20138;-67
2021/06/06 07:56:06;;;;;;;15.15;6.15;;;;;;;20.75;46.55;94064.16;5095527;28;20031;-67
2021/06/06 07:58:35;;;;;;;11.20;6.88;;;;;;;20.84;46.52;94054.59;5097221;28;20042;-67
2021/06/06 08:01:02;;;;;;;17.65;6.03;;;;;;;20.96;46.21;94052.72;5098747;28;20452;-68
2021/06/06 08:03:29;;;;;;;19.05;6.22;;;;;;;21.10;46.17;94052.84;5089493;28;20066;-67
2021/06/06 08:05:56;;;;;;;11.27;7.05;;;;;;;21.24;45.70;94058.38;5089499;28;20111;-67
2021/06/06 08:08:22;;;;;;;17.63;7.80;;;;;;;21.12;45.07;94052.47;5094011;28;20027;-67
2021/06/06 08:10:51;;;;;;;12.13;6.18;;;;;;;20.98;45.68;94056.63;5090518;28;20036;-67
2021/06/06 08:13:17;;;;;;;15.95;6.43;;;;;;;21.06;46.21;94043.13;5104672;28;20027;-67
2021/06/06 08:15:43;;;;;;;11.60;5.90;;;;;;;21.16;46.66;94042.44;5104554;28;20027;-67
2021/06/06 08:18:11;;;;;;;13.60;7.68;;;;;;;21.29;46.29;94041.00;5102559;28;20043;-67
2021/06/06 08:20:42;;;;;;;14.43;5.72;;;;;;;21.32;45.13;94034.81;5098165;28;20406;-67
2021/06/06 08:23:09;;;;;;;15.52;6.07;;;;;;;21.36;45.08;94041.03;5109733;28;20100;-67
2021/06/06 08:25:35;;;;;;;15.05;6.47;;;;;;;21.36;44.42;94043.75;5101580;28;20398;-67
2021/06/06 08:28:01;;;;;;;8.80;5.35;;;;;;;21.32;45.62;94029.41;5093364;28;20099;-66
2021/06/06 08:30:33;;;;;;;15.07;6.05;;;;;;;21.31;45.44;94038.69;5090955;28;20035;-67
2021/06/06 08:32:59;;;;;;;;;;;;;;;21.35;45.39;94034.06;5094993;28;20034;-67
2021/06/06 08:35:24;;;;;;;13.82;5.18;;;;;;;21.48;45.93;94023.72;5094588;28;19995;-66
2021/06/06 08:37:50;;;;;;;13.88;5.43;;;;;;;21.69;45.40;94009.50;5094449;28;20024;-67
2021/06/06 08:40:45;;;;;;;9.77;5.55;;;;;;;21.91;45.22;94015.03;5089627;28;20055;-66
2021/06/06 08:43:12;;;;;;;9.85;5.38;;;;;;;21.97;44.65;94018.94;5096192;28;20405;-67
2021/06/06 08:45:56;;;;;;;10.77;5.57;;;;;;;22.11;44.14;94012.78;5110372;28;20036;-67
2021/06/06 08:48:23;;;;;;;9.57;5.07;;;;;;;22.16;43.69;94010.44;5091720;28;20024;-72
2021/06/06 08:51:06;;;;;;;11.65;5.30;;;;;;;22.28;43.64;94000.44;5089951;28;20043;-72
2021/06/06 08:54:03;;;;;;;11.32;5.20;;;;;;;22.29;41.76;94008.22;5091442;28;20102;-72
2021/06/06 08:56:34;;;;;;;8.07;4.43;;;;;;;22.40;41.99;94013.66;5110274;28;20039;-72
2021/06/06 08:59:08;;;;;;;9.30;4.85;;;;;;;22.46;40.65;94005.94;5110161;28;20414;-73
2021/06/06 09:02:01;;;;;;;5.88;4.85;;;;;;;22.48;40.75;93996.22;5110147;28;20034;-72
2021/06/06 09:04:30;;;;;;;10.18;4.45;;;;;;;22.44;39.89;94017.16;5099962;28;20061;-72
2021/06/06 09:07:02;;;;;;;7.10;4.15;;;;;;;22.51;40.33;94000.91;5089942;28;20060;-72
2021/06/06 09:09:36;;;;;;;6.68;4.30;;;;;;;22.65;39.81;93989.25;5089539;28;20491;-72
2021/06/06 09:12:06;;;;;;;11.80;4.70;;;;;;;22.68;39.33;93979.56;5090048;28;20093;-73
2021/06/06 09:14:32;;;;;;;13.32;4.60;;;;;;;22.75;38.81;93995.88;5089567;28;20024;-72
2021/06/06 09:17:07;;;;;;;10.77;5.30;;;;;;;22.72;39.67;93999.38;5090027;28;20020;-72
2021/06/06 09:19:45;;;;;;;6.97;4.43;;;;;;;22.80;38.92;93995.50;5089705;28;20051;-73
2021/06/06 09:22:13;;;;;;;8.23;4.90;;;;;;;22.81;38.96;94000.53;5089650;28;20036;-72
2021/06/06 09:24:48;;;;;;;12.13;4.45;;;;;;;22.81;38.30;94000.53;5088492;28;20617;-72
2021/06/06 09:27:25;;;;;;;9.35;5.32;;;;;;;22.94;38.84;94006.38;5088576;28;20024;-72
2021/06/06 09:30:02;;;;;;;8.35;4.68;;;;;;;23.01;38.48;93981.13;5093359;28;20116;-72
2021/06/06 09:32:28;;;;;;;8.38;5.30;;;;;;;23.05;39.34;93981.91;5093437;28;20051;-72
2021/06/06 09:34:58;;;;;;;23.35;4.80;;;;;;;23.05;38.39;93970.28;5093689;28;20028;-72
2021/06/06 09:37:29;;;;;;;7.07;4.93;;;;;;;23.21;40.31;93978.81;5092245;28;20027;-73
2021/06/06 09:40:04;;;;;;;9.43;4.90;;;;;;;23.36;39.23;93958.56;5093425;28;20032;-74
2021/06/06 09:42:47;;;;;;;9.27;4.57;;;;;;;23.60;38.99;93977.94;5093542;28;20043;-72
2021/06/06 09:45:23;;;;;;;8.27;4.00;;;;;;;23.60;37.27;93967.81;5093402;28;20443;-73
2021/06/06 09:48:10;;;;;;;5.75;4.85;;;;;;;23.51;37.12;93964.75;5093340;28;20036;-72
2021/06/06 09:50:46;;;;;;;6.20;4.38;;;;;;;23.71;36.69;93958.84;5091851;28;20028;-72
2021/06/06 09:53:19;;;;;;;5.82;4.72;;;;;;;23.79;37.73;93969.38;5093160;28;20475;-72
2021/06/06 09:55:45;;;;;;;8.68;4.82;;;;;;;23.89;36.99;93969.69;5093194;28;20058;-72
2021/06/06 09:58:33;;;;;;;7.82;4.80;;;;;;;23.97;37.15;93963.06;5093200;28;20483;-73
2021/06/06 10:01:23;;;;;;;8.88;4.88;;;;;;;24.05;37.56;93959.13;5111614;28;20035;-73
2021/06/06 10:03:54;;;;;;;15.80;4.85;;;;;;;24.16;37.07;93965.31;5113143;28;20024;-72
2021/06/06 10:06:30;;;;;;;6.80;4.88;;;;;;;24.19;37.19;93953.59;5113425;28;20031;-73
2021/06/06 10:09:22;;;;;;;5.32;4.40;;;;;;;24.08;36.33;93950.19;5113351;27;20024;-72
2021/06/06 10:12:07;;;;;;;8.38;4.40;;;;;;;24.07;35.86;93951.34;5113241;28;20408;-72
2021/06/06 10:14:35;;;;;;;12.68;4.38;;;;;;;24.12;35.77;93950.13;5113197;28;20055;-73
2021/06/06 10:17:06;;;;;;;6.65;4.30;;;;;;;24.07;35.12;93951.34;5113065;28;20035;-72
2021/06/06 10:19:43;;;;;;;8.85;4.97;;;;;;;24.09;35.03;93954.44;5113323;28;20070;-72
2021/06/06 10:22:17;;;;;;;5.90;3.90;;;;;;;24.15;36.12;93941.97;5112849;28;20035;-72
2021/06/06 10:24:49;;;;;;;9.75;4.45;;;;;;;24.19;35.21;93941.94;5111545;28;20110;-72
2021/06/06 10:27:25;;;;;;;11.95;4.63;;;;;;;24.08;36.23;93930.31;5090253;28;20020;-72
2021/06/06 10:30:09;;;;;;;6.80;4.35;;;;;;;24.15;36.02;93936.50;5092160;28;20051;-72
2021/06/06 10:32:43;;;;;;;5.88;3.90;;;;;;;24.29;35.78;93930.22;5092744;28;20024;-72
2021/06/06 10:35:23;;;;;;;6.20;3.95;;;;;;;24.27;35.23;93927.13;5090262;28;20152;-72
2021/06/06 10:37:54;;;;;;;7.60;4.53;;;;;;;24.23;35.01;93935.28;5092261;28;20472;-72
2021/06/06 10:40:42;;;;;;;8.48;4.85;;;;;;;24.27;35.73;93938.00;5091496;28;20120;-72
2021/06/06 10:43:19;;;;;;;8.38;4.90;;;;;;;24.30;37.48;93933.69;5091970;28;20043;-72
2021/06/06 10:45:51;;;;;;;8.80;4.57;;;;;;;24.32;36.73;93932.16;5091848;28;20030;-72
2021/06/06 10:48:17;;;;;;;;;;;;;;;24.33;35.27;93928.25;5091341;28;20024;-73
2021/06/06 10:50:45;;;;;;;11.10;4.88;;;;;;;24.37;37.13;93920.81;5107436;28;20370;-73
2021/06/06 10:53:16;;;;;;;6.35;4.78;;;;;;;24.43;36.66;93913.78;5112455;28;20034;-72
2021/06/06 10:56:04;;;;;;;8.05;5.72;;;;;;;24.60;36.67;93917.56;5112515;28;20508;-73
2021/06/06 10:58:57;;;;;;;9.38;5.05;;;;;;;24.60;35.90;93924.97;5112472;28;20018;-72
2021/06/06 11:01:48;;;;;;;5.55;4.68;;;;;;;24.54;34.84;93923.84;5112291;28;20062;-72
2021/06/06 11:04:18;;;;;;;8.65;5.22;;;;;;;24.59;35.40;93912.53;5112108;28;20027;-72
2021/06/06 11:06:48;;;;;;;9.75;5.18;;;;;;;24.74;35.71;93921.34;5112329;28;20024;-73
2021/06/06 11:09:26;;;;;;;6.60;5.00;;;;;;;24.80;35.95;93925.97;5111821;28;20019;-72
2021/06/06 11:12:12;;;;;;;9.60;4.78;;;;;;;24.83;34.70;93913.47;5087144;28;20111;-72
2021/06/06 11:14:45;;;;;;;11.25;6.28;;;;;;;25.00;34.56;93898.94;5109370;28;20091;-72
2021/06/06 11:17:29;;;;;;;11.73;5.05;;;;;;;25.15;34.42;93906.97;5111810;28;20106;-73
2021/06/06 11:20:07;;;;;;;7.95;4.63;;;;;;;25.15;33.99;93901.50;5112122;28;20019;-72
2021/06/06 11:22:38;;;;;;;9.00;4.38;;;;;;;25.19;34.96;93907.69;5110217;28;20045;-72
2021/06/06 11:25:06;;;;;;;8.85;4.53;;;;;;;25.22;34.79;93904.97;5111186;28;20406;-73
2021/06/06 11:27:48;;;;;;;8.38;4.63;;;;;;;25.14;34.74;93908.16;5110111;28;20058;-72
2021/06/06 11:30:22;;;;;;;;;;;;;;;25.12;34.37;93902.34;5111964;28;20074;-73
2021/06/06 11:33:42;;;;;;;6.38;4.25;;;;;;;25.10;34.43;93901.97;5111640;28;20353;-73
2021/06/06 11:36:08;;;;;;;5.88;4.28;;;;;;;25.25;34.86;93905.34;5086880;28;20036;-72
2021/06/06 11:38:44;;;;;;;8.05;5.25;;;;;;;25.28;34.23;93907.25;5111448;28;20092;-72
2021/06/06 11:41:31;;;;;;;12.27;4.50;;;;;;;25.30;32.59;93908.41;5111349;28;20123;-72
2021/06/06 11:44:17;;;;;;;10.07;5.03;;;;;;;25.47;34.47;93894.97;5111508;28;20118;-72